createdAt,value
2023-04-17T00:03:01.947Z,9.88
2023-04-17T00:08:05.160Z,11.38
2023-04-17T00:13:14.946Z,12.02
2023-04-17T00:18:17.856Z,12.00
2023-04-17T00:23:20.945Z,13.55
2023-04-17T00:28:24.308Z,13.63
2023-04-17T00:33:27.169Z,12.80
2023-04-17T00:38:31.560Z,13.05
2023-04-17T00:43:34.513Z,12.18
2023-04-17T00:48:38.225Z,10.32
2023-04-17T00:53:41.220Z,10.07
2023-04-17T00:58:44.433Z,11.05
2023-04-17T01:03:47.598Z,11.35
2023-04-17T01:08:50.721Z,10.52
2023-04-17T01:13:53.715Z,9.80
2023-04-17T01:18:59.185Z,9.55
2023-04-17T01:24:03.801Z,12.35
2023-04-17T01:29:07.284Z,11.88
2023-04-17T01:34:10.999Z,14.40
2023-04-17T01:39:14.258Z,12.05
2023-04-17T01:44:17.896Z,12.13
2023-04-17T01:49:20.764Z,13.35
2023-04-17T01:54:25.305Z,13.23
2023-04-17T01:59:28.306Z,13.45
2023-04-17T02:04:31.754Z,12.48
2023-04-17T02:09:34.738Z,12.95
2023-04-17T02:14:37.637Z,11.93
2023-04-17T02:19:40.882Z,11.95
2023-04-17T02:24:43.815Z,12.32
2023-04-17T02:29:46.675Z,12.70
2023-04-17T02:34:49.589Z,10.93
2023-04-17T02:39:54.858Z,9.27
2023-04-17T02:44:57.849Z,11.65
2023-04-17T02:50:01.028Z,9.68
2023-04-17T02:55:04.364Z,9.60
2023-04-17T03:00:14.974Z,9.95
2023-04-17T03:05:18.689Z,8.63
2023-04-17T03:10:21.657Z,8.45
2023-04-17T03:15:25.311Z,9.70
2023-04-17T03:20:28.432Z,7.47
2023-04-17T03:25:31.379Z,6.10
2023-04-17T03:30:34.415Z,6.63
2023-04-17T03:35:41.501Z,8.07
2023-04-17T03:40:45.676Z,9.85
2023-04-17T03:45:49.725Z,10.00
2023-04-17T03:50:53.777Z,11.88
2023-04-17T03:55:57.494Z,11.00
2023-04-17T04:01:10.987Z,7.75
2023-04-17T04:06:22.766Z,6.93
2023-04-17T04:11:26.273Z,6.05
2023-04-17T04:16:30.549Z,6.35
2023-04-17T04:21:43.821Z,7.50
2023-04-17T04:26:49.994Z,7.72
2023-04-17T04:31:53.955Z,8.00
2023-04-17T04:36:59.543Z,7.55
2023-04-17T04:42:10.265Z,7.03
2023-04-17T04:47:27.932Z,6.15
2023-04-17T04:52:31.233Z,6.22
2023-04-17T04:57:38.689Z,4.75
2023-04-17T05:02:42.756Z,4.75
2023-04-17T05:07:47.758Z,5.03
2023-04-17T05:12:51.313Z,4.38
2023-04-17T05:17:54.690Z,4.38
2023-04-17T05:22:58.957Z,4.18
2023-04-17T05:28:02.040Z,3.90
2023-04-17T05:33:05.637Z,2.58
2023-04-17T05:38:26.788Z,1.88
2023-04-17T05:43:29.792Z,1.58
2023-04-17T05:48:33.080Z,2.95
2023-04-17T05:53:36.722Z,2.28
2023-04-17T05:58:39.696Z,1.95
2023-04-17T06:03:43.438Z,2.08
2023-04-17T06:08:54.037Z,1.70
2023-04-17T06:13:58.652Z,1.88
2023-04-17T06:19:02.314Z,1.40
2023-04-17T06:24:05.658Z,2.20
2023-04-17T06:29:09.443Z,2.58
2023-04-17T06:34:13.627Z,2.28
2023-04-17T06:39:21.421Z,2.63
2023-04-17T06:44:24.464Z,5.75
2023-04-17T06:49:27.605Z,2.30
2023-04-17T06:54:30.588Z,1.75
2023-04-17T06:59:34.527Z,1.65
2023-04-17T07:04:37.500Z,1.90
2023-04-17T07:09:40.617Z,1.77
2023-04-17T07:14:43.766Z,1.75
2023-04-17T07:19:46.996Z,1.88
2023-04-17T07:24:49.946Z,1.70
2023-04-17T07:29:54.984Z,1.45
2023-04-17T07:34:58.026Z,1.20
2023-04-17T07:40:01.229Z,1.63
2023-04-17T07:45:07.113Z,1.63
2023-04-17T07:50:10.494Z,1.00
2023-04-17T07:55:13.926Z,1.55
2023-04-17T08:00:17.107Z,1.30
2023-04-17T08:05:20.132Z,1.00
2023-04-17T08:10:23.216Z,1.50
2023-04-17T08:15:26.503Z,1.48
2023-04-17T08:20:30.150Z,1.02
2023-04-17T08:25:33.697Z,1.35
2023-04-17T08:30:36.741Z,1.20
2023-04-17T08:35:39.846Z,1.15
2023-04-17T08:40:43.322Z,1.10
2023-04-17T08:45:55.681Z,1.60
2023-04-17T08:50:59.068Z,1.23
2023-04-17T08:56:08.263Z,1.50
2023-04-17T09:01:16.907Z,0.90
2023-04-17T09:06:19.997Z,1.17
2023-04-17T09:11:23.065Z,1.00
2023-04-17T09:16:26.289Z,1.05
2023-04-17T09:21:29.433Z,1.58
2023-04-17T09:26:33.634Z,1.10
2023-04-17T09:31:38.190Z,1.15
2023-04-17T09:36:43.535Z,0.90
2023-04-17T09:41:46.988Z,0.90
2023-04-17T09:46:50.841Z,1.67
2023-04-17T09:51:53.919Z,0.93
2023-04-17T09:56:58.068Z,1.05
2023-04-17T10:02:07.590Z,1.02
2023-04-17T10:07:11.433Z,1.17
2023-04-17T10:12:17.173Z,1.85
2023-04-17T10:22:41.365Z,1.65
2023-04-17T10:27:46.550Z,1.65
2023-04-17T10:33:15.989Z,2.13
2023-04-17T10:38:36.380Z,1.58
2023-04-17T10:43:44.726Z,2.05
2023-04-17T10:48:55.024Z,2.17
2023-04-17T10:54:02.456Z,1.73
2023-04-17T10:59:12.959Z,1.60
2023-04-17T11:04:30.502Z,0.98
2023-04-17T11:09:33.882Z,1.73
2023-04-17T11:14:40.793Z,1.55
2023-04-17T11:19:45.869Z,1.17
2023-04-17T11:24:52.754Z,1.23
2023-04-17T11:29:55.788Z,1.27
2023-04-17T11:34:58.752Z,1.35
2023-04-17T11:40:11.180Z,1.45
2023-04-17T11:45:14.173Z,0.98
2023-04-17T11:50:17.660Z,1.30
2023-04-17T11:55:20.691Z,1.00
2023-04-17T12:00:27.885Z,1.10
2023-04-17T12:05:31.443Z,1.00
2023-04-17T12:10:52.709Z,0.90
2023-04-17T12:15:55.777Z,1.23
2023-04-17T12:20:58.741Z,1.45
2023-04-17T12:26:01.684Z,1.30
2023-04-17T12:31:05.160Z,2.03
2023-04-17T12:36:08.592Z,1.50
2023-04-17T12:41:11.668Z,2.55
2023-04-17T12:46:14.768Z,1.58
2023-04-17T12:51:17.654Z,1.90
2023-04-17T12:56:20.862Z,1.30
2023-04-17T13:01:23.868Z,1.17
2023-04-17T13:06:28.451Z,1.17
2023-04-17T13:11:31.517Z,1.33
2023-04-17T13:16:34.470Z,1.10
2023-04-17T13:21:37.417Z,1.42
2023-04-17T13:26:41.394Z,1.70
2023-04-17T13:31:44.385Z,1.38
2023-04-17T13:36:48.142Z,1.60
2023-04-17T13:41:51.819Z,1.77
2023-04-17T13:46:55.558Z,1.63
2023-04-17T13:51:58.490Z,1.50
2023-04-17T13:57:01.757Z,1.13
2023-04-17T14:02:05.020Z,1.50
2023-04-17T14:07:08.147Z,1.20
2023-04-17T14:12:11.090Z,2.20
2023-04-17T14:17:14.121Z,1.40
2023-04-17T14:22:17.153Z,2.20
2023-04-17T14:27:20.069Z,2.22
2023-04-17T14:32:23.072Z,2.15
2023-04-17T14:37:26.865Z,1.90
2023-04-17T14:42:29.862Z,2.10
2023-04-17T14:47:33.373Z,2.10
2023-04-17T14:52:36.341Z,2.70
2023-04-17T14:57:39.798Z,2.72
2023-04-17T15:02:43.010Z,2.53
2023-04-17T15:07:49.351Z,2.47
2023-04-17T15:12:52.353Z,2.05
2023-04-17T15:17:55.464Z,1.63
2023-04-17T15:22:58.434Z,1.80
2023-04-17T15:28:01.476Z,2.58
2023-04-17T15:33:04.696Z,3.10
2023-04-17T15:38:07.982Z,2.03
2023-04-17T15:43:12.160Z,3.03
2023-04-17T15:48:16.116Z,2.78
2023-04-17T15:53:19.053Z,2.63
2023-04-17T15:58:21.978Z,2.92
2023-04-17T16:03:25.062Z,2.38
2023-04-17T16:08:28.172Z,2.63
2023-04-17T16:13:31.199Z,2.70
2023-04-17T16:18:34.129Z,4.28
2023-04-17T16:23:39.510Z,3.78
2023-04-17T16:28:43.508Z,4.20
2023-04-17T16:33:46.476Z,5.15
2023-04-17T16:38:49.499Z,4.03
2023-04-17T16:43:52.655Z,4.82
2023-04-17T16:48:56.048Z,5.22
2023-04-17T16:54:00.130Z,5.53
2023-04-17T16:59:04.498Z,7.93
2023-04-17T17:04:07.538Z,7.90
2023-04-17T17:09:10.780Z,11.25
2023-04-17T17:14:14.753Z,10.88
2023-04-17T17:19:17.647Z,11.30
2023-04-17T17:24:20.564Z,11.70
2023-04-17T17:29:23.563Z,13.65
2023-04-17T17:34:27.200Z,8.48
2023-04-17T17:39:30.528Z,5.22
2023-04-17T17:44:33.445Z,2.97
2023-04-17T17:49:36.423Z,1.65
2023-04-17T17:54:39.500Z,1.10
2023-04-17T17:59:42.546Z,1.38
2023-04-17T18:04:45.715Z,1.13
2023-04-17T18:09:50.788Z,1.08
2023-04-17T18:14:53.954Z,1.02
2023-04-17T18:19:56.864Z,1.67
2023-04-17T18:25:00.749Z,1.15
2023-04-17T18:30:07.994Z,1.20
2023-04-17T18:35:11.011Z,1.15
2023-04-17T18:40:14.178Z,1.00
2023-04-17T18:45:17.160Z,0.90
2023-04-17T18:50:20.099Z,0.80
2023-04-17T18:55:23.070Z,0.75
2023-04-17T19:00:26.439Z,0.60
2023-04-17T19:05:29.540Z,0.40
2023-04-17T19:10:32.514Z,0.95
2023-04-17T19:15:36.484Z,0.50
2023-04-17T19:20:40.234Z,0.82
2023-04-17T19:25:43.340Z,0.70
2023-04-17T19:30:46.274Z,0.60
2023-04-17T19:35:50.629Z,1.00
2023-04-17T19:41:19.429Z,0.60
2023-04-17T19:46:24.354Z,0.60
2023-04-17T19:51:27.899Z,1.02
2023-04-17T19:56:30.897Z,0.85
2023-04-17T20:01:33.931Z,1.20
2023-04-17T20:06:36.903Z,1.67
2023-04-17T20:11:39.807Z,1.77
2023-04-17T20:16:45.258Z,2.05
2023-04-17T20:21:48.298Z,2.10
2023-04-17T20:26:51.186Z,1.63
2023-04-17T20:31:54.279Z,1.27
2023-04-17T20:36:57.137Z,0.73
2023-04-17T20:42:00.056Z,0.85
2023-04-17T20:47:03.488Z,0.70
2023-04-17T20:52:06.427Z,0.57
2023-04-17T20:57:09.287Z,0.60
2023-04-17T21:02:12.253Z,0.65
2023-04-17T21:07:15.688Z,0.60
2023-04-17T21:12:18.658Z,0.40
2023-04-17T21:17:21.708Z,0.50
2023-04-17T21:22:24.696Z,0.52
2023-04-17T21:27:27.564Z,0.57
2023-04-17T21:32:30.554Z,0.50
2023-04-17T21:37:33.575Z,0.80
2023-04-17T21:42:36.557Z,0.90
2023-04-17T21:47:39.528Z,0.45
2023-04-17T21:52:42.557Z,0.52
2023-04-17T21:57:45.564Z,0.60
2023-04-17T22:02:48.571Z,1.05
2023-04-17T22:07:55.417Z,0.57
2023-04-17T22:12:58.641Z,0.90
2023-04-17T22:18:01.759Z,0.90
2023-04-17T22:23:04.695Z,0.60
2023-04-17T22:28:07.775Z,0.70
2023-04-17T22:33:10.687Z,0.73
2023-04-17T22:38:13.639Z,1.00
2023-04-17T22:43:16.675Z,1.27
2023-04-17T22:48:19.746Z,0.82
2023-04-17T22:53:22.944Z,1.00
2023-04-17T22:58:25.841Z,0.85
2023-04-17T23:03:29.079Z,0.93
2023-04-17T23:08:32.027Z,1.13
2023-04-17T23:13:35.046Z,1.33
2023-04-17T23:18:38.018Z,0.90
2023-04-17T23:23:41.008Z,1.10
2023-04-17T23:28:44.282Z,1.10
2023-04-17T23:33:47.258Z,1.00
2023-04-17T23:38:50.264Z,1.40
2023-04-17T23:43:56.195Z,1.67
2023-04-17T23:48:59.261Z,1.10
2023-04-17T23:54:02.305Z,0.85
2023-04-17T23:59:05.351Z,1.40
